sensor_id;sensor_type;location;lat;lon;timestamp;temperature;humidity
16313;DHT22;8265;52.622;13.296;2023-02-26T00:04:17;-1.70;94.90
16313;DHT22;8265;52.622;13.296;2023-02-26T00:09:37;-1.70;94.70
16313;DHT22;8265;52.622;13.296;2023-02-26T00:14:59;-1.50;94.90
16313;DHT22;8265;52.622;13.296;2023-02-26T00:20:20;-1.50;93.60
16313;DHT22;8265;52.622;13.296;2023-02-26T00:25:41;-1.50;93.70
16313;DHT22;8265;52.622;13.296;2023-02-26T00:31:02;-1.20;92.40
16313;DHT22;8265;52.622;13.296;2023-02-26T00:41:43;-1.10;91.70
16313;DHT22;8265;52.622;13.296;2023-02-26T00:57:46;-1.00;90.90
16313;DHT22;8265;52.622;13.296;2023-02-26T01:03:07;-0.90;90.30
16313;DHT22;8265;52.622;13.296;2023-02-26T01:08:37;-1.00;90.30
16313;DHT22;8265;52.622;13.296;2023-02-26T01:13:49;-1.10;91.50
16313;DHT22;8265;52.622;13.296;2023-02-26T01:19:29;-1.00;90.20
16313;DHT22;8265;52.622;13.296;2023-02-26T01:24:31;-0.90;89.80
16313;DHT22;8265;52.622;13.296;2023-02-26T01:29:52;-0.90;89.60
16313;DHT22;8265;52.622;13.296;2023-02-26T01:35:41;-1.10;90.60
16313;DHT22;8265;52.622;13.296;2023-02-26T01:46:15;-1.00;89.00
16313;DHT22;8265;52.622;13.296;2023-02-26T01:51:17;-0.90;88.00
16313;DHT22;8265;52.622;13.296;2023-02-26T01:56:38;-1.00;88.10
16313;DHT22;8265;52.622;13.296;2023-02-26T02:01:59;-0.90;88.60
16313;DHT22;8265;52.622;13.296;2023-02-26T02:07:19;-1.10;89.50
16313;DHT22;8265;52.622;13.296;2023-02-26T02:12:44;-1.00;88.90
16313;DHT22;8265;52.622;13.296;2023-02-26T02:18:06;-0.80;86.70
16313;DHT22;8265;52.622;13.296;2023-02-26T02:23:29;-0.90;88.20
16313;DHT22;8265;52.622;13.296;2023-02-26T02:34:21;-0.90;86.50
16313;DHT22;8265;52.622;13.296;2023-02-26T02:44:48;-0.80;86.40
16313;DHT22;8265;52.622;13.296;2023-02-26T02:50:16;-0.90;86.60
16313;DHT22;8265;52.622;13.296;2023-02-26T02:55:32;-0.90;86.00
16313;DHT22;8265;52.622;13.296;2023-02-26T03:00:51;-0.80;85.80
16313;DHT22;8265;52.622;13.296;2023-02-26T03:06:10;-0.90;85.80
16313;DHT22;8265;52.622;13.296;2023-02-26T03:11:31;-0.80;85.60
16313;DHT22;8265;52.622;13.296;2023-02-26T03:17:08;-0.90;86.00
16313;DHT22;8265;52.622;13.296;2023-02-26T03:22:28;-0.90;86.30
16313;DHT22;8265;52.622;13.296;2023-02-26T03:27:35;-0.70;85.60
16313;DHT22;8265;52.622;13.296;2023-02-26T03:32:56;-0.90;86.30
16313;DHT22;8265;52.622;13.296;2023-02-26T03:38:19;-0.90;86.90
16313;DHT22;8265;52.622;13.296;2023-02-26T03:43:44;-0.80;86.00
16313;DHT22;8265;52.622;13.296;2023-02-26T03:48:58;-0.80;85.10
16313;DHT22;8265;52.622;13.296;2023-02-26T03:54:20;-0.90;86.30
16313;DHT22;8265;52.622;13.296;2023-02-26T03:59:40;-0.90;86.10
16313;DHT22;8265;52.622;13.296;2023-02-26T04:05:11;-0.70;85.30
16313;DHT22;8265;52.622;13.296;2023-02-26T04:10:25;-0.70;85.30
16313;DHT22;8265;52.622;13.296;2023-02-26T04:15:43;-0.80;85.40
16313;DHT22;8265;52.622;13.296;2023-02-26T04:21:04;-0.70;85.10
16313;DHT22;8265;52.622;13.296;2023-02-26T04:26:25;-0.70;84.20
16313;DHT22;8265;52.622;13.296;2023-02-26T04:31:46;-0.70;84.00
16313;DHT22;8265;52.622;13.296;2023-02-26T04:37:07;-0.70;84.70
16313;DHT22;8265;52.622;13.296;2023-02-26T04:42:28;-0.70;83.50
16313;DHT22;8265;52.622;13.296;2023-02-26T04:47:49;-0.70;84.80
16313;DHT22;8265;52.622;13.296;2023-02-26T04:53:10;-0.70;85.10
16313;DHT22;8265;52.622;13.296;2023-02-26T04:58:31;-0.70;83.20
16313;DHT22;8265;52.622;13.296;2023-02-26T05:03:52;-0.70;83.40
16313;DHT22;8265;52.622;13.296;2023-02-26T05:09:13;-0.70;83.20
16313;DHT22;8265;52.622;13.296;2023-02-26T05:14:34;-0.60;82.10
16313;DHT22;8265;52.622;13.296;2023-02-26T05:19:55;-0.60;82.10
16313;DHT22;8265;52.622;13.296;2023-02-26T05:25:16;-0.70;82.60
16313;DHT22;8265;52.622;13.296;2023-02-26T05:30:37;-0.70;84.20
16313;DHT22;8265;52.622;13.296;2023-02-26T05:35:58;-0.70;83.50
16313;DHT22;8265;52.622;13.296;2023-02-26T05:41:19;-0.60;82.00
16313;DHT22;8265;52.622;13.296;2023-02-26T05:46:40;-0.70;82.10
16313;DHT22;8265;52.622;13.296;2023-02-26T05:52:01;-0.60;81.70
16313;DHT22;8265;52.622;13.296;2023-02-26T05:57:22;-0.50;80.80
16313;DHT22;8265;52.622;13.296;2023-02-26T06:02:43;-0.60;82.30
16313;DHT22;8265;52.622;13.296;2023-02-26T06:08:04;-0.70;81.90
16313;DHT22;8265;52.622;13.296;2023-02-26T06:13:25;-0.60;82.00
16313;DHT22;8265;52.622;13.296;2023-02-26T06:18:46;-0.70;82.60
16313;DHT22;8265;52.622;13.296;2023-02-26T06:24:07;-0.50;79.60
16313;DHT22;8265;52.622;13.296;2023-02-26T06:29:28;-0.60;80.30
16313;DHT22;8265;52.622;13.296;2023-02-26T06:34:49;-0.50;79.40
16313;DHT22;8265;52.622;13.296;2023-02-26T06:40:10;-0.40;79.50
16313;DHT22;8265;52.622;13.296;2023-02-26T06:45:31;-0.40;78.30
16313;DHT22;8265;52.622;13.296;2023-02-26T06:50:52;-0.40;78.80
16313;DHT22;8265;52.622;13.296;2023-02-26T06:56:13;-0.30;79.20
16313;DHT22;8265;52.622;13.296;2023-02-26T07:01:34;-0.30;80.10
16313;DHT22;8265;52.622;13.296;2023-02-26T07:06:55;-0.20;78.70
16313;DHT22;8265;52.622;13.296;2023-02-26T07:12:16;-0.10;77.80
16313;DHT22;8265;52.622;13.296;2023-02-26T07:17:37;0.00;77.40
16313;DHT22;8265;52.622;13.296;2023-02-26T07:22:58;0.10;76.70
16313;DHT22;8265;52.622;13.296;2023-02-26T07:28:19;0.30;76.00
16313;DHT22;8265;52.622;13.296;2023-02-26T07:33:40;0.30;75.40
16313;DHT22;8265;52.622;13.296;2023-02-26T07:39:01;0.20;76.40
16313;DHT22;8265;52.622;13.296;2023-02-26T07:44:22;0.20;75.80
16313;DHT22;8265;52.622;13.296;2023-02-26T07:49:43;0.00;75.60
16313;DHT22;8265;52.622;13.296;2023-02-26T07:55:04;-0.10;77.70
16313;DHT22;8265;52.622;13.296;2023-02-26T08:00:25;0.00;76.40
16313;DHT22;8265;52.622;13.296;2023-02-26T08:05:46;0.20;75.20
16313;DHT22;8265;52.622;13.296;2023-02-26T08:11:07;0.10;76.20
16313;DHT22;8265;52.622;13.296;2023-02-26T08:16:28;0.20;75.50
16313;DHT22;8265;52.622;13.296;2023-02-26T08:21:49;0.20;76.00
16313;DHT22;8265;52.622;13.296;2023-02-26T08:27:10;0.20;75.40
16313;DHT22;8265;52.622;13.296;2023-02-26T08:32:31;0.40;74.40
16313;DHT22;8265;52.622;13.296;2023-02-26T08:37:52;0.40;74.30
16313;DHT22;8265;52.622;13.296;2023-02-26T08:43:13;0.50;74.20
16313;DHT22;8265;52.622;13.296;2023-02-26T08:48:34;0.60;73.50
16313;DHT22;8265;52.622;13.296;2023-02-26T08:53:55;0.70;72.50
16313;DHT22;8265;52.622;13.296;2023-02-26T08:59:16;0.80;72.90
16313;DHT22;8265;52.622;13.296;2023-02-26T09:04:37;1.00;73.00
16313;DHT22;8265;52.622;13.296;2023-02-26T09:09:58;1.00;72.60
16313;DHT22;8265;52.622;13.296;2023-02-26T09:15:19;1.00;72.80
16313;DHT22;8265;52.622;13.296;2023-02-26T09:20:43;1.10;72.10
16313;DHT22;8265;52.622;13.296;2023-02-26T09:26:01;1.30;72.50
16313;DHT22;8265;52.622;13.296;2023-02-26T09:31:22;1.30;72.20
16313;DHT22;8265;52.622;13.296;2023-02-26T09:36:43;1.50;72.50
16313;DHT22;8265;52.622;13.296;2023-02-26T09:47:44;1.80;69.80
16313;DHT22;8265;52.622;13.296;2023-02-26T09:52:49;2.00;68.60
16313;DHT22;8265;52.622;13.296;2023-02-26T09:58:10;2.20;66.20
16313;DHT22;8265;52.622;13.296;2023-02-26T10:09:02;1.90;67.60
16313;DHT22;8265;52.622;13.296;2023-02-26T10:14:18;2.20;67.40
16313;DHT22;8265;52.622;13.296;2023-02-26T10:19:36;2.50;64.00
16313;DHT22;8265;52.622;13.296;2023-02-26T10:24:57;2.40;64.10
16313;DHT22;8265;52.622;13.296;2023-02-26T10:35:35;2.40;62.70
16313;DHT22;8265;52.622;13.296;2023-02-26T10:41:02;2.40;60.90
16313;DHT22;8265;52.622;13.296;2023-02-26T10:46:41;2.50;62.80
16313;DHT22;8265;52.622;13.296;2023-02-26T10:51:37;2.80;61.90
16313;DHT22;8265;52.622;13.296;2023-02-26T10:56:57;3.50;59.90
16313;DHT22;8265;52.622;13.296;2023-02-26T11:02:27;4.30;58.40
16313;DHT22;8265;52.622;13.296;2023-02-26T11:07:39;3.50;58.60
16313;DHT22;8265;52.622;13.296;2023-02-26T11:13:00;3.30;58.90
16313;DHT22;8265;52.622;13.296;2023-02-26T11:18:34;2.90;59.30
16313;DHT22;8265;52.622;13.296;2023-02-26T11:23:42;2.60;58.80
16313;DHT22;8265;52.622;13.296;2023-02-26T11:29:06;2.60;60.80
16313;DHT22;8265;52.622;13.296;2023-02-26T11:34:24;2.80;60.50
16313;DHT22;8265;52.622;13.296;2023-02-26T11:39:45;2.70;57.90
16313;DHT22;8265;52.622;13.296;2023-02-26T11:45:06;2.50;58.90
16313;DHT22;8265;52.622;13.296;2023-02-26T11:50:27;2.80;58.40
16313;DHT22;8265;52.622;13.296;2023-02-26T11:55:51;3.60;57.00
16313;DHT22;8265;52.622;13.296;2023-02-26T12:01:10;3.20;54.00
16313;DHT22;8265;52.622;13.296;2023-02-26T12:06:30;2.90;58.40
16313;DHT22;8265;52.622;13.296;2023-02-26T12:17:29;3.50;53.30
16313;DHT22;8265;52.622;13.296;2023-02-26T12:22:50;2.90;55.30
16313;DHT22;8265;52.622;13.296;2023-02-26T12:43:58;3.90;54.00
16313;DHT22;8265;52.622;13.296;2023-02-26T12:49:34;3.90;52.60
16313;DHT22;8265;52.622;13.296;2023-02-26T13:00:09;3.60;54.70
16313;DHT22;8265;52.622;13.296;2023-02-26T13:21:28;3.10;51.20
16313;DHT22;8265;52.622;13.296;2023-02-26T13:26:45;3.50;51.70
16313;DHT22;8265;52.622;13.296;2023-02-26T13:32:07;4.00;49.70
16313;DHT22;8265;52.622;13.296;2023-02-26T13:37:36;3.80;49.70
16313;DHT22;8265;52.622;13.296;2023-02-26T13:48:28;2.70;53.10
16313;DHT22;8265;52.622;13.296;2023-02-26T13:58:52;2.80;52.50
16313;DHT22;8265;52.622;13.296;2023-02-26T14:09:43;4.30;49.00
16313;DHT22;8265;52.622;13.296;2023-02-26T14:20:25;4.10;48.40
16313;DHT22;8265;52.622;13.296;2023-02-26T14:25:40;3.70;49.00
16313;DHT22;8265;52.622;13.296;2023-02-26T14:31:13;3.50;50.70
16313;DHT22;8265;52.622;13.296;2023-02-26T14:41:39;2.90;52.50
16313;DHT22;8265;52.622;13.296;2023-02-26T14:47:00;3.10;53.10
16313;DHT22;8265;52.622;13.296;2023-02-26T14:57:52;2.90;48.90
16313;DHT22;8265;52.622;13.296;2023-02-26T15:24:27;3.30;49.80
16313;DHT22;8265;52.622;13.296;2023-02-26T15:29:48;3.10;49.30
16313;DHT22;8265;52.622;13.296;2023-02-26T15:35:18;3.00;51.40
16313;DHT22;8265;52.622;13.296;2023-02-26T15:40:31;3.00;51.50
16313;DHT22;8265;52.622;13.296;2023-02-26T15:45:52;2.70;52.40
16313;DHT22;8265;52.622;13.296;2023-02-26T15:51:12;2.90;52.50
16313;DHT22;8265;52.622;13.296;2023-02-26T15:56:34;2.90;54.30
16313;DHT22;8265;52.622;13.296;2023-02-26T16:01:54;2.90;52.60
16313;DHT22;8265;52.622;13.296;2023-02-26T16:07:14;2.70;54.60
16313;DHT22;8265;52.622;13.296;2023-02-26T16:12:36;2.50;55.00
16313;DHT22;8265;52.622;13.296;2023-02-26T16:17:57;2.30;58.10
16313;DHT22;8265;52.622;13.296;2023-02-26T16:23:20;2.00;58.20
16313;DHT22;8265;52.622;13.296;2023-02-26T16:28:40;1.80;58.00
16313;DHT22;8265;52.622;13.296;2023-02-26T16:34:02;1.60;58.50
16313;DHT22;8265;52.622;13.296;2023-02-26T16:39:25;1.40;59.30
16313;DHT22;8265;52.622;13.296;2023-02-26T16:44:48;1.20;59.80
16313;DHT22;8265;52.622;13.296;2023-02-26T16:50:02;1.20;62.00
16313;DHT22;8265;52.622;13.296;2023-02-26T16:55:24;1.10;61.10
16313;DHT22;8265;52.622;13.296;2023-02-26T17:00:45;1.30;62.40
16313;DHT22;8265;52.622;13.296;2023-02-26T17:06:09;1.40;60.60
16313;DHT22;8265;52.622;13.296;2023-02-26T17:11:33;1.00;61.70
16313;DHT22;8265;52.622;13.296;2023-02-26T17:16:48;0.60;62.70
16313;DHT22;8265;52.622;13.296;2023-02-26T17:22:11;0.40;63.20
16313;DHT22;8265;52.622;13.296;2023-02-26T17:27:31;0.60;62.10
16313;DHT22;8265;52.622;13.296;2023-02-26T17:32:50;0.30;64.20
16313;DHT22;8265;52.622;13.296;2023-02-26T17:38:12;0.20;63.50
16313;DHT22;8265;52.622;13.296;2023-02-26T17:43:32;0.10;63.70
16313;DHT22;8265;52.622;13.296;2023-02-26T17:48:53;0.00;64.60
16313;DHT22;8265;52.622;13.296;2023-02-26T17:54:14;0.00;64.40
16313;DHT22;8265;52.622;13.296;2023-02-26T17:59:35;-0.10;65.10
16313;DHT22;8265;52.622;13.296;2023-02-26T18:04:56;-0.30;65.20
16313;DHT22;8265;52.622;13.296;2023-02-26T18:10:19;-0.30;64.80
16313;DHT22;8265;52.622;13.296;2023-02-26T18:15:38;-0.50;64.80
16313;DHT22;8265;52.622;13.296;2023-02-26T18:20:59;-0.50;68.00
16313;DHT22;8265;52.622;13.296;2023-02-26T18:26:21;-0.50;68.00
16313;DHT22;8265;52.622;13.296;2023-02-26T18:31:41;-0.60;66.50
16313;DHT22;8265;52.622;13.296;2023-02-26T18:37:02;-0.90;68.10
16313;DHT22;8265;52.622;13.296;2023-02-26T18:42:25;-1.10;70.20
16313;DHT22;8265;52.622;13.296;2023-02-26T18:47:45;-0.70;71.70
16313;DHT22;8265;52.622;13.296;2023-02-26T18:53:05;-0.60;66.50
16313;DHT22;8265;52.622;13.296;2023-02-26T18:58:26;-1.20;67.90
16313;DHT22;8265;52.622;13.296;2023-02-26T19:03:47;-1.70;70.40
16313;DHT22;8265;52.622;13.296;2023-02-26T19:09:08;-2.00;72.30
16313;DHT22;8265;52.622;13.296;2023-02-26T19:14:29;-2.20;72.00
16313;DHT22;8265;52.622;13.296;2023-02-26T19:19:50;-2.40;73.50
16313;DHT22;8265;52.622;13.296;2023-02-26T19:25:12;-2.50;73.80
16313;DHT22;8265;52.622;13.296;2023-02-26T19:30:32;-2.30;75.50
16313;DHT22;8265;52.622;13.296;2023-02-26T19:35:53;-2.60;75.80
16313;DHT22;8265;52.622;13.296;2023-02-26T19:41:15;-2.80;76.20
16313;DHT22;8265;52.622;13.296;2023-02-26T19:46:35;-2.60;77.50
16313;DHT22;8265;52.622;13.296;2023-02-26T19:51:57;-2.80;78.00
16313;DHT22;8265;52.622;13.296;2023-02-26T19:57:17;-2.90;79.60
16313;DHT22;8265;52.622;13.296;2023-02-26T20:02:39;-2.90;79.10
16313;DHT22;8265;52.622;13.296;2023-02-26T20:07:59;-3.00;78.90
16313;DHT22;8265;52.622;13.296;2023-02-26T20:13:21;-3.00;80.70
16313;DHT22;8265;52.622;13.296;2023-02-26T20:18:42;-2.50;78.70
16313;DHT22;8265;52.622;13.296;2023-02-26T20:24:02;-3.00;78.70
16313;DHT22;8265;52.622;13.296;2023-02-26T20:29:23;-3.00;79.10
16313;DHT22;8265;52.622;13.296;2023-02-26T20:34:45;-3.20;80.40
16313;DHT22;8265;52.622;13.296;2023-02-26T20:40:06;-3.10;80.60
16313;DHT22;8265;52.622;13.296;2023-02-26T20:45:27;-2.90;80.10
16313;DHT22;8265;52.622;13.296;2023-02-26T20:50:47;-3.00;81.20
16313;DHT22;8265;52.622;13.296;2023-02-26T20:56:08;-3.00;82.00
16313;DHT22;8265;52.622;13.296;2023-02-26T21:01:29;-2.90;82.50
16313;DHT22;8265;52.622;13.296;2023-02-26T21:06:50;-2.90;82.00
16313;DHT22;8265;52.622;13.296;2023-02-26T21:12:11;-2.80;81.90
16313;DHT22;8265;52.622;13.296;2023-02-26T21:17:32;-2.80;81.30
16313;DHT22;8265;52.622;13.296;2023-02-26T21:22:53;-2.90;82.00
16313;DHT22;8265;52.622;13.296;2023-02-26T21:28:14;-2.60;81.20
16313;DHT22;8265;52.622;13.296;2023-02-26T21:33:35;-2.70;81.70
16313;DHT22;8265;52.622;13.296;2023-02-26T21:38:56;-3.10;83.30
16313;DHT22;8265;52.622;13.296;2023-02-26T21:44:17;-3.30;84.80
16313;DHT22;8265;52.622;13.296;2023-02-26T21:49:38;-3.40;86.00
16313;DHT22;8265;52.622;13.296;2023-02-26T21:54:59;-3.50;86.40
16313;DHT22;8265;52.622;13.296;2023-02-26T22:00:20;-3.60;86.80
16313;DHT22;8265;52.622;13.296;2023-02-26T22:05:41;-3.70;86.90
16313;DHT22;8265;52.622;13.296;2023-02-26T22:11:02;-3.60;86.30
16313;DHT22;8265;52.622;13.296;2023-02-26T22:16:23;-3.70;86.00
16313;DHT22;8265;52.622;13.296;2023-02-26T22:21:44;-3.80;86.60
16313;DHT22;8265;52.622;13.296;2023-02-26T22:27:05;-3.70;86.10
16313;DHT22;8265;52.622;13.296;2023-02-26T22:32:26;-3.70;86.20
16313;DHT22;8265;52.622;13.296;2023-02-26T22:37:47;-3.80;86.50
16313;DHT22;8265;52.622;13.296;2023-02-26T22:43:08;-3.60;86.70
16313;DHT22;8265;52.622;13.296;2023-02-26T22:48:29;-2.80;84.70
16313;DHT22;8265;52.622;13.296;2023-02-26T22:53:50;-2.70;81.50
16313;DHT22;8265;52.622;13.296;2023-02-26T22:59:11;-2.80;82.40
16313;DHT22;8265;52.622;13.296;2023-02-26T23:04:32;-2.90;81.90
16313;DHT22;8265;52.622;13.296;2023-02-26T23:09:53;-3.00;82.20
16313;DHT22;8265;52.622;13.296;2023-02-26T23:15:14;-3.20;83.70
16313;DHT22;8265;52.622;13.296;2023-02-26T23:20:35;-3.60;85.50
16313;DHT22;8265;52.622;13.296;2023-02-26T23:25:56;-3.80;87.20
16313;DHT22;8265;52.622;13.296;2023-02-26T23:31:20;-4.00;87.90
16313;DHT22;8265;52.622;13.296;2023-02-26T23:36:38;-4.00;88.00
16313;DHT22;8265;52.622;13.296;2023-02-26T23:41:59;-4.00;88.70
16313;DHT22;8265;52.622;13.296;2023-02-26T23:47:20;-3.90;88.40
16313;DHT22;8265;52.622;13.296;2023-02-26T23:52:41;-4.00;88.10
16313;DHT22;8265;52.622;13.296;2023-02-26T23:58:02;-4.00;88.10
